Agua Fria, New Mexico
Current Conditions -  °F | °C
As of 9:53 AM on Thursday 30 Oct 2014 (Local Time) from KSAF Reporting Station
Clear Clear  
Wind Chill: 55°   Ceiling: Unl
Heat Index: 55°   Visibility: 10mi
Dew Point: 13°   Wind: 7mph
Humidity: 19%   Direction: 360°N
Pressure: 30.39"   Gusts: NA
Location:  35.7017°N, 105.921°W
Report Text: KSAF 301553Z 36006KT 10SM CLR 13/M11 A3039 RMK AO2 SLP240 T01281106
Loading
Personal Weather Stations






























Interactive Weather Map
Tropical Storm Tracking
New forecast layout! Learn more

10-Day Weather Forecast

Advertisements
Track Severe Weather on mobile